createdAt,value
2018-01-28T00:01:40.683Z,61.40
2018-01-28T00:04:07.484Z,61.40
2018-01-28T00:06:34.547Z,61.40
2018-01-28T00:09:01.662Z,61.40
2018-01-28T00:11:28.682Z,61.40
2018-01-28T00:13:54.928Z,61.40
2018-01-28T00:16:21.377Z,61.40
2018-01-28T00:18:48.372Z,61.40
2018-01-28T00:21:14.622Z,61.40
2018-01-28T00:23:40.886Z,61.40
2018-01-28T00:26:07.903Z,61.40
2018-01-28T00:28:34.155Z,61.30
2018-01-28T00:31:00.437Z,61.30
2018-01-28T00:33:27.763Z,61.40
2018-01-28T00:35:54.381Z,61.40
2018-01-28T00:38:20.904Z,61.30
2018-01-28T00:40:47.211Z,61.40
2018-01-28T00:43:13.459Z,62.00
2018-01-28T00:45:40.003Z,61.40
2018-01-28T00:48:06.415Z,61.30
2018-01-28T00:50:32.762Z,61.30
2018-01-28T00:52:59.035Z,61.30
2018-01-28T00:55:25.625Z,61.30
2018-01-28T00:57:51.989Z,61.30
2018-01-28T01:00:18.274Z,61.30
2018-01-28T01:02:44.606Z,61.40
2018-01-28T01:05:10.832Z,61.30
2018-01-28T01:07:37.069Z,61.30
2018-01-28T01:10:03.317Z,61.30
2018-01-28T01:12:29.557Z,61.30
2018-01-28T01:14:55.800Z,61.30
2018-01-28T01:17:22.053Z,61.40
2018-01-28T01:19:48.304Z,61.40
2018-01-28T01:22:14.617Z,61.50
2018-01-28T01:24:41.081Z,61.30
2018-01-28T01:27:07.323Z,61.30
2018-01-28T01:29:33.549Z,61.40
2018-01-28T01:31:59.806Z,61.40
2018-01-28T01:34:26.102Z,61.30
2018-01-28T01:36:53.143Z,61.30
2018-01-28T01:39:19.368Z,61.30
2018-01-28T01:41:45.607Z,61.40
2018-01-28T01:44:12.014Z,61.30
2018-01-28T01:46:38.368Z,61.30
2018-01-28T01:49:04.607Z,61.40
2018-01-28T01:51:30.884Z,61.40
2018-01-28T01:53:57.123Z,61.40
2018-01-28T01:56:23.358Z,61.40
2018-01-28T01:58:49.723Z,61.40
2018-01-28T02:01:15.945Z,61.40
2018-01-28T02:03:42.192Z,61.40
2018-01-28T02:06:08.420Z,61.40
2018-01-28T02:08:34.660Z,61.40
2018-01-28T02:11:00.904Z,61.50
2018-01-28T02:13:27.130Z,61.40
2018-01-28T02:15:53.361Z,61.40
2018-01-28T02:18:19.666Z,61.40
2018-01-28T02:20:45.931Z,61.40
2018-01-28T02:23:12.199Z,61.40
2018-01-28T02:25:38.439Z,61.40
2018-01-28T02:28:04.688Z,61.40
2018-01-28T02:30:31.721Z,61.50
2018-01-28T02:32:58.046Z,61.40
2018-01-28T02:35:24.281Z,61.40
2018-01-28T02:37:51.280Z,61.50
2018-01-28T02:40:17.528Z,61.40
2018-01-28T02:42:43.758Z,61.40
2018-01-28T02:45:09.997Z,61.40
2018-01-28T02:47:36.225Z,61.40
2018-01-28T02:50:02.454Z,61.40
2018-01-28T02:52:28.685Z,61.40
2018-01-28T02:54:54.908Z,61.40
2018-01-28T02:57:21.146Z,61.40
2018-01-28T02:59:47.383Z,61.40
2018-01-28T03:02:13.617Z,61.40
2018-01-28T03:04:39.849Z,61.50
2018-01-28T03:07:06.105Z,61.50
2018-01-28T03:09:32.343Z,61.50
2018-01-28T03:11:58.571Z,61.40
2018-01-28T03:14:24.797Z,61.50
2018-01-28T03:16:51.035Z,61.50
2018-01-28T03:19:17.291Z,61.40
2018-01-28T03:21:43.519Z,61.40
2018-01-28T03:24:09.745Z,61.40
2018-01-28T03:26:35.977Z,61.40
2018-01-28T03:29:02.228Z,61.40
2018-01-28T03:31:29.215Z,61.50
2018-01-28T03:33:55.441Z,61.40
2018-01-28T03:36:21.666Z,61.40
2018-01-28T03:38:47.912Z,61.50
2018-01-28T03:41:14.163Z,61.40
2018-01-28T03:43:40.399Z,61.50
2018-01-28T03:46:06.638Z,61.50
2018-01-28T03:48:32.874Z,61.50
2018-01-28T03:50:59.109Z,61.50
2018-01-28T03:53:25.333Z,61.50
2018-01-28T03:55:51.577Z,61.50
2018-01-28T03:58:17.858Z,61.50
2018-01-28T04:00:44.084Z,61.50
2018-01-28T04:03:10.306Z,61.50
2018-01-28T04:05:36.562Z,61.50
2018-01-28T04:08:02.803Z,61.50
2018-01-28T04:10:29.792Z,62.40
2018-01-28T04:12:56.040Z,61.50
2018-01-28T04:15:23.027Z,61.50
2018-01-28T04:17:49.363Z,61.50
2018-01-28T04:20:15.602Z,61.50
2018-01-28T04:22:41.844Z,61.50
2018-01-28T04:25:08.075Z,61.50
2018-01-28T04:27:34.324Z,61.50
2018-01-28T04:30:00.569Z,62.20
2018-01-28T04:32:26.821Z,61.50
2018-01-28T04:34:53.063Z,61.50
2018-01-28T04:37:19.308Z,61.50
2018-01-28T04:39:45.546Z,61.50
2018-01-28T04:42:11.778Z,61.50
2018-01-28T04:44:38.018Z,61.50
2018-01-28T04:47:04.245Z,61.50
2018-01-28T04:49:30.483Z,61.50
2018-01-28T04:51:56.728Z,61.60
2018-01-28T04:54:22.967Z,61.50
2018-01-28T04:56:49.204Z,61.50
2018-01-28T04:59:15.435Z,61.50
2018-01-28T05:01:41.663Z,61.50
2018-01-28T05:04:07.901Z,61.50
2018-01-28T05:06:34.901Z,61.60
2018-01-28T05:09:01.130Z,61.60
2018-01-28T05:11:27.362Z,61.60
2018-01-28T05:13:53.585Z,61.60
2018-01-28T05:16:19.808Z,61.60
2018-01-28T05:18:46.059Z,61.60
2018-01-28T05:21:12.280Z,61.50
2018-01-28T05:23:38.532Z,61.60
2018-01-28T05:26:04.772Z,61.60
2018-01-28T05:28:31.015Z,61.60
2018-01-28T05:30:57.244Z,61.60
2018-01-28T05:33:23.464Z,61.60
2018-01-28T05:35:49.699Z,61.50
2018-01-28T05:38:15.948Z,61.60
2018-01-28T05:40:42.177Z,61.60
2018-01-28T05:43:08.414Z,61.60
2018-01-28T05:45:34.650Z,61.60
2018-01-28T05:48:00.877Z,61.60
2018-01-28T05:50:27.109Z,61.60
2018-01-28T05:52:53.334Z,61.60
2018-01-28T05:55:19.560Z,61.60
2018-01-28T05:57:45.822Z,61.60
2018-01-28T06:00:12.063Z,61.60
2018-01-28T06:02:38.302Z,61.60
2018-01-28T06:05:05.302Z,61.70
2018-01-28T06:07:31.546Z,61.60
2018-01-28T06:09:57.773Z,61.60
2018-01-28T06:12:24.017Z,61.60
2018-01-28T06:14:50.267Z,61.60
2018-01-28T06:17:16.497Z,61.60
2018-01-28T06:19:42.749Z,61.60
2018-01-28T06:22:09.007Z,61.60
2018-01-28T06:24:35.246Z,61.60
2018-01-28T06:27:01.492Z,61.60
2018-01-28T06:29:27.750Z,61.60
2018-01-28T06:31:54.755Z,61.60
2018-01-28T06:34:20.987Z,61.60
2018-01-28T06:36:47.220Z,61.60
2018-01-28T06:39:13.466Z,61.60
2018-01-28T06:41:39.707Z,61.60
2018-01-28T06:44:05.927Z,61.60
2018-01-28T06:46:32.180Z,61.60
2018-01-28T06:48:58.412Z,61.60
2018-01-28T06:51:24.667Z,61.60
2018-01-28T06:53:50.901Z,62.30
2018-01-28T06:56:17.138Z,61.60
2018-01-28T06:58:43.383Z,61.60
2018-01-28T07:01:09.610Z,62.30
2018-01-28T07:03:35.856Z,61.60
2018-01-28T07:06:02.892Z,61.60
2018-01-28T07:08:29.145Z,61.60
2018-01-28T07:10:55.393Z,61.60
2018-01-28T07:13:21.630Z,61.60
2018-01-28T07:15:47.870Z,61.60
2018-01-28T07:18:14.123Z,61.60
2018-01-28T07:20:40.363Z,61.60
2018-01-28T07:23:06.604Z,61.60
2018-01-28T07:25:33.638Z,61.70
2018-01-28T07:27:59.888Z,61.60
2018-01-28T07:30:26.112Z,61.60
2018-01-28T07:32:52.402Z,61.70
2018-01-28T07:35:18.624Z,61.70
2018-01-28T07:37:44.861Z,61.60
2018-01-28T07:40:11.102Z,61.70
2018-01-28T07:42:37.333Z,61.70
2018-01-28T07:45:03.557Z,61.70
2018-01-28T07:47:29.782Z,61.70
2018-01-28T07:49:56.025Z,61.70
2018-01-28T07:52:22.244Z,61.70
2018-01-28T07:54:48.469Z,61.60
2018-01-28T07:57:14.706Z,61.70
2018-01-28T07:59:40.947Z,61.70
2018-01-28T08:02:07.177Z,61.70
2018-01-28T08:04:33.414Z,61.70
2018-01-28T08:07:00.426Z,61.70
2018-01-28T08:09:26.650Z,61.60
2018-01-28T08:11:52.900Z,61.70
2018-01-28T08:14:19.152Z,61.70
2018-01-28T08:16:45.398Z,61.70
2018-01-28T08:19:11.643Z,61.70
2018-01-28T08:21:37.871Z,61.70
2018-01-28T08:24:04.106Z,61.70
2018-01-28T08:26:30.381Z,62.30
2018-01-28T08:28:56.618Z,61.70
2018-01-28T08:31:23.631Z,61.70
2018-01-28T08:33:50.328Z,61.70
2018-01-28T08:36:16.563Z,61.70
2018-01-28T08:38:43.263Z,61.80
2018-01-28T08:41:09.577Z,61.70
2018-01-28T08:43:36.063Z,61.70
2018-01-28T08:46:02.701Z,61.70
2018-01-28T08:48:28.955Z,61.70
2018-01-28T08:50:55.192Z,61.70
2018-01-28T08:53:21.412Z,61.70
2018-01-28T08:55:47.637Z,61.70
2018-01-28T08:58:13.875Z,61.70
2018-01-28T09:00:40.104Z,61.70
2018-01-28T09:03:06.336Z,61.70
2018-01-28T09:05:32.556Z,61.70
2018-01-28T09:07:58.789Z,61.70
2018-01-28T09:10:25.040Z,61.80
2018-01-28T09:12:51.273Z,61.70
2018-01-28T09:15:17.519Z,61.70
2018-01-28T09:17:43.762Z,61.70
2018-01-28T09:20:09.995Z,61.80
2018-01-28T09:22:36.226Z,61.70
2018-01-28T09:25:02.852Z,61.70
2018-01-28T09:27:29.085Z,61.70
2018-01-28T09:29:55.331Z,61.80
2018-01-28T09:32:21.570Z,61.70
2018-01-28T09:34:47.797Z,61.70
2018-01-28T09:37:14.036Z,61.70
2018-01-28T09:39:40.262Z,61.70
2018-01-28T09:42:06.508Z,61.80
2018-01-28T09:44:32.756Z,61.80
2018-01-28T09:46:58.981Z,61.70
2018-01-28T09:49:25.227Z,61.80
2018-01-28T09:51:52.229Z,61.80
2018-01-28T09:54:18.469Z,61.80
2018-01-28T09:56:44.710Z,61.80
2018-01-28T09:59:10.945Z,61.70
2018-01-28T10:01:37.173Z,61.80
2018-01-28T10:04:03.420Z,61.80
2018-01-28T10:06:29.671Z,61.80
2018-01-28T10:08:55.910Z,61.80
2018-01-28T10:11:22.164Z,61.80
2018-01-28T10:13:48.395Z,61.80
2018-01-28T10:16:14.626Z,61.80
2018-01-28T10:18:40.864Z,61.80
2018-01-28T10:21:07.124Z,61.80
2018-01-28T10:23:34.121Z,61.90
2018-01-28T10:26:01.118Z,61.80
2018-01-28T10:28:28.122Z,61.80
2018-01-28T10:30:54.349Z,61.80
2018-01-28T10:33:21.375Z,61.80
2018-01-28T10:35:47.638Z,62.00
2018-01-28T10:38:13.893Z,61.80
2018-01-28T10:40:40.885Z,61.80
2018-01-28T10:43:07.132Z,61.80
2018-01-28T10:45:33.366Z,61.80
2018-01-28T10:47:59.593Z,61.80
2018-01-28T10:50:25.829Z,61.80
2018-01-28T10:52:52.061Z,61.80
2018-01-28T10:55:18.304Z,61.80
2018-01-28T10:57:45.307Z,61.80
2018-01-28T11:00:11.545Z,61.80
2018-01-28T11:02:37.801Z,61.80
2018-01-28T11:05:04.066Z,61.80
2018-01-28T11:07:30.317Z,61.80
